Las Vegas, Nevada (DRI) Weather observations

Data are for observation ending at time listed.
 Day   Time    Ave.   Ave.  Ave.  Vector   Max.   Stn.    Total    Solar   Ave.  
  of    of     Air    Rel.  Wind   Wind    Wind   Baro.  Precip.   Rad.    Soil  
Year   Day     Temp.  Hum.  Speed  Dir.    Gust   Pres.                    Temp. 
2026   (PST)    F      %     mph   deg.    mph     mb.     in.     W/m2     F   
------------------------------------------------------------------------------
 246   11:00   89.7    14    8.1   173     15.6   939.6    0.00     842    91.2
 246   11:10   90.3    14    6.4   174     14.4   939.5    0.00     849    91.9
 246   11:20   90.9    14    6.9   172     14.6   939.3    0.00     856    92.7
 246   11:30   91.3    14    7.1   170     15.3   939.1    0.00     860    93.4
 246   11:40   91.5    14    7.7   172     14.1   939.0    0.00     864    94.1
 246   11:50   92.2    14    7.4   176     15.3   938.8    0.00     863    94.8
 246   12:00   92.4    14    5.8   174     12.6   938.7    0.00     862    95.5
 246   12:10   92.9    14    6.8   176     13.4   938.5    0.00     861    96.1
 246   12:20   93.3    14    6.6   182     13.2   938.3    0.00     859    96.7
 246   12:30   93.4    14    7.5   180     12.9   938.2    0.00     853    97.3
 246   12:40   94.6    13    4.9   170      9.7   938.1    0.00     845    98.0
 246   12:50   94.8    13    5.9   174     10.4   938.0    0.00     838    98.6
 246   13:00   94.2    13    8.4   175     16.1   938.0    0.00     829    99.1
 246   13:10   94.2    13    6.4   191     11.3   937.9    0.00     815    99.7
 246   13:20   94.9    13    7.5   177     15.1   937.8    0.00     805    100.2
 246   13:30   94.8    12    7.0   184     12.7   937.7    0.00     791    100.7
 246   13:40   95.1    13    5.5   176     11.3   937.7    0.00     771    101.1
 246   13:50   95.4    12    5.6   186     16.3   937.4    0.00     755    101.6
 246   14:00   95.3    12    7.4   180     12.9   937.3    0.00     735    101.9
 246   14:10   94.8    12    7.0   192     15.9   937.2    0.00     713    102.3
 246   14:20   95.1    12    6.3   185     13.8   937.1    0.00     692    102.5
 246   14:30   95.3    12    6.1   190     14.2   937.0    0.00     668    102.8
 246   14:40   96.0    12    6.7   187     17.8   936.8    0.00     644    102.9
 246   14:50   95.9    12    6.5   182     12.9   936.7    0.00     618    102.9
 246   15:00   95.8    12    6.2   178     15.2   936.5    0.00     591    102.9
 246   15:10   96.3    12    5.1   188     13.4   936.4    0.00     563    102.8
 246   15:20   95.9    12    5.7   186     13.1   936.3    0.00     533    102.7
 246   15:30   95.7    12    5.5   190     13.4   936.2    0.00     503    102.5
 246   15:40   95.4    12    7.0   186     13.2   936.1    0.00     472    102.3
 246   15:50   95.1    12    6.5   187     14.6   936.1    0.00     440    102.0
 246   16:00   95.4    12    5.7   195     11.7   936.1    0.00     407    101.8
 246   16:10   95.0    12    6.8   195     13.2   936.0    0.00     373    101.5
 246   16:20   94.8    12    6.5   196     15.4   936.0    0.00     339    101.2
 246   16:30   94.9    12    6.0   182     10.3   935.9    0.00     306    100.9
 246   16:40   94.9    12    5.8   185     10.9   935.8    0.00     271    100.6
 246   16:50   94.8    12    5.3   190     11.4   935.8    0.00     237    100.4
 246   17:00   94.4    13    4.7   199     11.8   935.8    0.00     204    100.1
 246   17:10   94.0    13    5.2   195     11.6   935.9    0.00     172    99.9
 246   17:20   93.3    13    5.7   189     13.2   935.9    0.00     140    99.6
 246   17:30   92.8    13    6.2   194     12.2   935.8    0.00     110    99.4
 246   17:40   91.8    13    5.1   207     15.1   935.9    0.00      27    99.1
 246   17:50   91.3    13    5.7   195     12.9   936.0    0.00      13    98.8
 246   18:00   91.1    13    5.3   201     12.1   936.0    0.00       8    98.5
 246   18:10   90.8    13    4.3   186     10.0   936.0    0.00       4    98.2
 246   18:20   90.6    13    5.1   204     12.6   936.0    0.00       2    97.9
 246   18:30   90.1    13    5.0   182     14.2   936.1    0.00       0    97.6
 246   18:40   89.8    13    4.6   188      8.8   936.1    0.00       0    97.3
 246   18:50   89.6    13    3.8   193      9.5   936.1    0.00       0    97.1
 246   19:00   89.3    13    5.1   186     11.5   936.3    0.00       0    96.8
 246   19:10   89.2    14    5.7   178     11.9   936.3    0.00       0    96.5
 246   19:20   89.1    14    4.7   185      9.8   936.4    0.00       0    96.3
 246   19:30   88.9    14    5.2   183      9.7   936.5    0.00       0    96.0
 246   19:40   88.6    14    4.5   175      9.1   936.6    0.00       0    95.8
 246   19:50   88.3    14    3.9   173      6.6   936.7    0.00       0    95.5
 246   20:00   87.9    14    3.5   175      7.8   936.9    0.00       0    95.3
 246   20:10   87.9    14    2.6   174      6.8   936.9    0.00       0    95.1
 246   20:20   87.5    15    0.3   164      2.3   937.0    0.00       0    95.0
 246   20:30   86.6    16    0.4   153      5.9   937.1    0.00       0    94.8
 246   20:40   86.1    15    1.5   164      5.7   937.1    0.00       0    94.6
 246   20:50   85.8    15    1.4   171      4.4   937.1    0.00       0    94.4
 246   21:00   85.9    15    2.5   174      6.5   937.0    0.00       0    94.3
 246   21:10   86.3    14    3.5   174      8.8   936.9    0.00       0    94.1
 246   21:20   86.5    14    3.5   178      7.7   936.9    0.00       0    93.9
 246   21:30   86.3    14    4.4   176      8.6   936.8    0.00       0    93.7
 246   21:40   86.0    14    3.2   172      6.6   936.8    0.00       0    93.5
 246   21:50   85.1    14    2.0   168      4.3   936.7    0.00       0    93.3
 246   22:00   84.7    14    1.7   175      5.8   936.7    0.00       0    93.1
 246   22:10   84.1    14    2.0   181      5.0   936.8    0.00       0    93.0
 246   22:20   83.8    14    2.1   172      5.3   936.9    0.00       0    92.8
 246   22:30   83.8    14    3.4   172      8.2   936.9    0.00       0    92.6
 246   22:40   84.2    14    4.3   180      9.9   937.0    0.00       0    92.4
 246   22:50   83.9    14    4.0   174      7.5   937.1    0.00       0    92.2
 246   23:00   83.6    15    3.7   187      7.4   937.1    0.00       0    92.1
 246   23:10   83.5    17    4.7   183      9.1   937.1    0.00       0    91.9
 246   23:20   83.6    20    5.6   183     10.1   937.2    0.00       0    91.7
 246   23:30   83.2    21    4.4   177      8.4   937.2    0.00       0    91.6
 246   23:40   82.7    21    3.6   184      7.7   937.3    0.00       0    91.5
 246   23:50   82.6    22    4.4   183      8.7   937.3    0.00       0    91.3
 247    0:00   82.5    22    4.0   188     10.5   937.4    0.00       0    91.2
 247    0:10   82.2    22    4.6   185      9.1   937.4    0.00       0    91.0
 247    0:20   82.0    22    4.4   180      8.3   937.4    0.00       0    90.9
 247    0:30   81.6    22    3.9   180      8.3   937.4    0.00       0    90.8
 247    0:40   81.1    23    2.9   178      7.1   937.3    0.00       0    90.7
 247    0:50   80.7    24    2.0   181      5.8   937.4    0.00       0    90.6
 247    1:00   80.1    25    1.5   191      6.7   937.4    0.00       0    90.5
 247    1:10   80.0    25    2.0   184      4.4   937.3    0.00       0    90.4
 247    1:20   79.9    25    1.5   181      4.7   937.4    0.00       0    90.3
 247    1:30   79.5    26    2.5   182      5.3   937.4    0.00       0    90.2
 247    1:40   79.5    27    3.8   172      8.1   937.5    0.00       0    90.0
 247    1:50   79.7    28    3.4   176      7.5   937.5    0.00       0    89.9
 247    2:00   79.5    28    3.5   184      7.0   937.6    0.00       0    89.8
 247    2:10   79.0    29    4.5   182      9.2   937.7    0.00       0    89.6
 247    2:20   78.7    30    4.4   178      8.6   937.7    0.00       0    89.5
 247    2:30   78.8    30    4.5   182      8.8   937.8    0.00       0    89.3
 247    2:40   78.8    30    4.7   180      9.3   937.8    0.00       0    89.2
 247    2:50   78.9    30    5.9   173     10.4   937.9    0.00       0    89.1
 247    3:00   79.1    30    5.1   176      9.8   937.9    0.00       0    89.0
 247    3:10   78.9    30    5.1   174     11.8   938.1    0.00       0    88.9
 247    3:20   78.5    30    5.5   170      9.8   938.1    0.00       0    88.7
 247    3:30   78.3    30    4.9   168     10.6   938.1    0.00       0    88.6
 247    3:40   78.0    31    5.1   171     10.2   938.2    0.00       0    88.5
 247    3:50   77.7    31    3.9   172      8.6   938.2    0.00       0    88.4
 247    4:00   77.1    32    2.1   176      9.4   938.3    0.00       0    88.3
 247    4:10   76.7    32    2.9   170      9.3   938.4    0.00       0    88.2
 247    4:20   76.6    32    1.8   169      9.7   938.4    0.00       0    88.2
 247    4:30   76.4    32    3.3   175      8.4   938.4    0.00       0    88.1
 247    4:40   76.4    32    4.2   170      9.9   938.5    0.00       0    87.9
 247    4:50   76.4    33    4.7   168     11.7   938.6    0.00       0    87.8
 247    5:00   76.4    32    4.9   169      9.3   938.8    0.00       0    87.7
 247    5:10   76.3    32    6.0   171     12.1   938.8    0.00       1    87.5
 247    5:20   76.3    32    5.2   172     11.2   939.0    0.00       3    87.4
 247    5:30   76.1    32    4.1   165      8.7   939.1    0.00       7    87.3
 247    5:40   76.1    32    3.3   174     10.6   939.1    0.00      10    87.2
 247    5:50   76.7    31    5.6   179     12.4   939.2    0.00      13    87.1
 247    6:00   76.9    31    4.9   190     11.4   939.3    0.00      15    87.0
 247    6:10   77.0    31    5.0   202     10.0   939.4    0.00      17    86.9
 247    6:20   77.2    31    4.2   172      9.9   939.6    0.00      18    86.8
 247    6:30   77.3    31    5.5   175     12.2   939.8    0.00      20    86.7
 247    6:40   77.1    32    4.0   174     11.5   939.9    0.00      21    86.6
 247    6:50   77.0    32    4.1   174     11.0   940.0    0.00      22    86.6
 247    7:00   77.2    32    4.3   180      8.6   940.0    0.00      23    86.5
 247    7:10   77.8    31    4.1   180      8.8   940.1    0.00      24    86.5
 247    7:20   78.4    31    4.7   178     11.2   940.1    0.00      25    86.4
 247    7:30   79.1    30    5.8   174     12.3   940.1    0.00      26    86.4
 247    7:40   79.6    29    5.0   181      9.8   940.1    0.00      27    86.3
 247    7:50   80.0    28    6.8   173     14.2   940.1    0.00      29    86.3
 247    8:00   80.5    28    5.3   179      9.6   940.1    0.00      36    86.2
 247    8:10   81.5    27    6.7   174     15.4   940.2    0.00      66    86.2
 247    8:20   82.0    25    7.1   174     14.0   940.3    0.00      92    86.2
 247    8:30   82.4    25    7.5   175     14.0   940.3    0.00     196    86.1
 247    8:40   83.0    24    7.6   171     15.8   940.2    0.00     200    86.1
 247    8:50   83.5    23    8.3   173     16.0   940.3    0.00     172    86.1
 247    9:00   83.8    23    8.2   172     16.6   940.4    0.00     306    86.1
 247    9:10   84.4    23    7.8   176     18.0   940.5    0.00     442    86.2
 247    9:20   84.8    22    8.6   174     14.4   940.6    0.00     649    86.2
 247    9:30   85.7    22    7.0   183     11.9   940.6    0.00     692    86.3
 247    9:40   86.5    21    7.1   182     14.8   940.6    0.00     714    86.5
 247    9:50   87.0    20    7.8   175     15.8   940.6    0.00     735    86.8
 247   10:00   87.3    20    7.8   179     14.0   940.5    0.00     753    87.3
 247   10:10   88.1    19    8.2   178     15.4   940.4    0.00     772    87.8
 247   10:20   88.5    19    7.1   171     15.9   940.3    0.00     788    88.4
 247   10:30   89.1    18    7.8   177     15.8   940.2    0.00     802    89.1
 247   10:40   89.8    18    7.1   188     14.4   940.2    0.00     815    89.9
 247   10:50   90.2    17    7.6   185     13.4   940.0    0.00     826    90.6

Return to Las Vegas, Nevada graphs page.


Western Regional Climate Center,wrcc@dri.edu